createdAt,value
2019-03-21T00:02:06.261Z,21.27
2019-03-21T00:04:34.641Z,21.27
2019-03-21T00:07:03.017Z,21.25
2019-03-21T00:09:31.400Z,21.25
2019-03-21T00:12:11.078Z,21.25
2019-03-21T00:14:57.596Z,21.23
2019-03-21T00:17:37.490Z,21.22
2019-03-21T00:20:16.694Z,21.21
2019-03-21T00:22:45.018Z,21.20
2019-03-21T00:25:21.625Z,21.20
2019-03-21T00:27:50.006Z,21.18
2019-03-21T00:30:23.731Z,21.16
2019-03-21T00:32:53.052Z,21.16
2019-03-21T00:35:21.438Z,21.17
2019-03-21T00:37:49.984Z,21.15
2019-03-21T00:40:24.234Z,21.14
2019-03-21T00:42:52.616Z,21.14
2019-03-21T00:45:21.002Z,21.13
2019-03-21T00:47:49.383Z,21.12
2019-03-21T00:50:20.956Z,21.11
2019-03-21T00:52:51.574Z,21.11
2019-03-21T00:55:20.031Z,21.10
2019-03-21T00:57:48.414Z,21.09
2019-03-21T01:00:20.134Z,21.09
2019-03-21T01:02:48.512Z,21.09
2019-03-21T01:05:16.904Z,21.07
2019-03-21T01:07:45.344Z,21.07
2019-03-21T01:10:16.775Z,21.06
2019-03-21T01:12:45.154Z,21.06
2019-03-21T01:15:13.718Z,21.04
2019-03-21T01:17:42.055Z,21.04
2019-03-21T01:20:16.687Z,21.03
2019-03-21T01:22:45.818Z,21.02
2019-03-21T01:25:36.744Z,21.01
2019-03-21T01:28:05.266Z,21.02
2019-03-21T01:30:33.642Z,20.99
2019-03-21T01:33:02.030Z,20.99
2019-03-21T01:35:30.399Z,20.98
2019-03-21T01:37:58.783Z,20.98
2019-03-21T01:40:30.207Z,20.97
2019-03-21T01:42:58.591Z,20.97
2019-03-21T01:45:27.233Z,20.96
2019-03-21T01:47:55.678Z,20.97
2019-03-21T01:50:28.848Z,20.95
2019-03-21T01:52:57.233Z,20.94
2019-03-21T01:55:25.604Z,20.94
2019-03-21T01:57:53.984Z,20.90
2019-03-21T02:00:33.884Z,20.90
2019-03-21T02:03:02.276Z,20.91
2019-03-21T02:05:30.665Z,20.91
2019-03-21T02:07:59.043Z,20.90
2019-03-21T02:10:27.411Z,20.89
2019-03-21T02:12:55.793Z,20.88
2019-03-21T02:15:25.033Z,20.88
2019-03-21T02:17:53.432Z,20.86
2019-03-21T02:20:22.738Z,20.86
2019-03-21T02:22:51.114Z,20.87
2019-03-21T02:25:22.289Z,20.85
2019-03-21T02:27:50.827Z,20.85
2019-03-21T02:30:21.744Z,20.83
2019-03-21T02:32:52.572Z,20.82
2019-03-21T02:35:20.940Z,20.83
2019-03-21T02:37:49.340Z,20.81
2019-03-21T02:40:20.594Z,20.81
2019-03-21T02:42:48.997Z,20.80
2019-03-21T02:45:17.424Z,20.80
2019-03-21T02:47:45.971Z,20.79
2019-03-21T02:50:26.042Z,20.78
2019-03-21T02:52:54.439Z,20.78
2019-03-21T02:55:23.441Z,20.78
2019-03-21T02:57:51.628Z,20.76
2019-03-21T03:00:22.919Z,20.77
2019-03-21T03:02:52.625Z,20.78
2019-03-21T03:05:26.219Z,20.75
2019-03-21T03:07:54.597Z,20.74
2019-03-21T03:10:38.048Z,20.75
2019-03-21T03:13:06.488Z,20.73
2019-03-21T03:15:36.306Z,20.71
2019-03-21T03:18:06.602Z,20.71
2019-03-21T03:20:34.982Z,20.71
2019-03-21T03:23:03.354Z,20.70
2019-03-21T03:25:31.731Z,20.70
2019-03-21T03:28:11.624Z,20.70
2019-03-21T03:30:39.998Z,20.68
2019-03-21T03:33:08.365Z,20.67
2019-03-21T03:35:36.744Z,20.67
2019-03-21T03:38:05.190Z,20.67
2019-03-21T03:41:03.548Z,20.66
2019-03-21T03:43:30.330Z,20.66
2019-03-21T03:45:58.716Z,20.63
2019-03-21T03:48:28.022Z,20.63
2019-03-21T03:50:56.404Z,20.63
2019-03-21T03:53:24.793Z,20.62
2019-03-21T03:55:53.165Z,20.62
2019-03-21T03:58:29.636Z,20.62
2019-03-21T04:00:58.193Z,20.61
2019-03-21T04:03:27.907Z,20.59
2019-03-21T04:05:56.490Z,20.59
2019-03-21T04:08:24.841Z,20.59
2019-03-21T04:10:54.547Z,20.58
2019-03-21T04:13:22.924Z,20.53
2019-03-21T04:15:53.663Z,20.57
2019-03-21T04:18:25.408Z,20.57
2019-03-21T04:20:57.165Z,20.56
2019-03-21T04:23:25.535Z,20.55
2019-03-21T04:26:03.047Z,20.55
2019-03-21T04:28:31.527Z,20.54
2019-03-21T04:31:00.156Z,20.54
2019-03-21T04:33:28.494Z,20.53
2019-03-21T04:35:56.870Z,20.53
2019-03-21T04:38:25.239Z,20.52
2019-03-21T04:40:53.622Z,20.52
2019-03-21T04:43:22.326Z,20.52
2019-03-21T04:45:50.704Z,20.52
2019-03-21T04:48:19.078Z,20.51
2019-03-21T04:50:47.461Z,20.50
2019-03-21T04:53:15.832Z,20.51
2019-03-21T04:55:44.207Z,20.51
2019-03-21T04:58:12.591Z,20.51
2019-03-21T05:00:45.653Z,20.50
2019-03-21T05:03:16.066Z,20.49
2019-03-21T05:05:44.436Z,20.48
2019-03-21T05:08:12.822Z,20.47
2019-03-21T05:10:41.191Z,20.48
2019-03-21T05:13:09.588Z,20.47
2019-03-21T05:15:40.518Z,20.47
2019-03-21T05:18:36.019Z,20.46
2019-03-21T05:21:07.635Z,20.46
2019-03-21T05:23:36.009Z,20.45
2019-03-21T05:26:04.401Z,20.44
2019-03-21T05:28:32.811Z,20.46
2019-03-21T05:31:06.905Z,20.47
2019-03-21T05:33:35.288Z,20.48
2019-03-21T05:36:03.731Z,20.49
2019-03-21T05:38:33.148Z,20.49
2019-03-21T05:41:01.522Z,20.47
2019-03-21T05:43:35.938Z,20.45
2019-03-21T05:46:04.307Z,20.47
2019-03-21T05:48:32.699Z,20.47
2019-03-21T05:51:02.697Z,20.46
2019-03-21T05:53:31.125Z,20.46
2019-03-21T05:55:59.501Z,20.44
2019-03-21T05:58:27.879Z,20.44
2019-03-21T06:01:08.039Z,20.45
2019-03-21T06:03:46.065Z,20.44
2019-03-21T06:06:17.478Z,20.45
2019-03-21T06:08:45.855Z,20.42
2019-03-21T06:11:14.237Z,20.41
2019-03-21T06:13:42.619Z,20.37
2019-03-21T06:16:11.357Z,20.34
2019-03-21T06:18:48.237Z,20.34
2019-03-21T06:21:44.539Z,20.34
2019-03-21T06:24:42.359Z,20.36
2019-03-21T06:27:16.534Z,20.42
2019-03-21T06:29:44.920Z,20.38
2019-03-21T06:32:13.298Z,20.38
2019-03-21T06:34:41.690Z,20.39
2019-03-21T06:37:10.054Z,20.40
2019-03-21T06:39:38.438Z,20.41
2019-03-21T06:42:06.801Z,20.39
2019-03-21T06:44:35.185Z,20.40
2019-03-21T06:47:03.556Z,20.39
2019-03-21T06:49:31.946Z,20.41
2019-03-21T06:52:00.319Z,20.41
2019-03-21T06:54:28.731Z,20.42
2019-03-21T06:56:57.176Z,20.44
2019-03-21T06:59:25.560Z,20.44
2019-03-21T07:01:53.924Z,20.45
2019-03-21T07:04:22.306Z,20.52
2019-03-21T07:06:50.691Z,20.57
2019-03-21T07:09:19.062Z,20.65
2019-03-21T07:11:47.440Z,20.74
2019-03-21T07:14:15.812Z,20.86
2019-03-21T07:16:44.199Z,20.95
2019-03-21T07:19:12.567Z,21.00
2019-03-21T07:21:40.982Z,21.09
2019-03-21T07:24:09.360Z,21.15
2019-03-21T07:26:38.458Z,21.22
2019-03-21T07:29:06.895Z,21.29
2019-03-21T07:31:35.314Z,21.33
2019-03-21T07:34:03.693Z,21.37
2019-03-21T07:36:32.086Z,21.42
2019-03-21T07:39:00.454Z,21.49
2019-03-21T07:41:28.878Z,21.54
2019-03-21T07:43:57.339Z,21.59
2019-03-21T07:46:25.688Z,21.64
2019-03-21T07:48:54.067Z,21.69
2019-03-21T07:51:22.492Z,21.72
2019-03-21T07:53:50.878Z,21.75
2019-03-21T07:56:19.303Z,21.76
2019-03-21T07:58:47.692Z,21.80
2019-03-21T08:01:16.097Z,21.82
2019-03-21T08:03:44.479Z,21.84
2019-03-21T08:06:12.881Z,21.88
2019-03-21T08:08:41.263Z,21.93
2019-03-21T08:11:09.689Z,21.98
2019-03-21T08:13:38.857Z,22.02
2019-03-21T08:16:07.274Z,22.07
2019-03-21T08:18:35.659Z,22.11
2019-03-21T08:21:04.075Z,22.16
2019-03-21T08:23:32.477Z,22.22
2019-03-21T08:26:00.879Z,22.26
2019-03-21T08:28:29.293Z,22.31
2019-03-21T08:31:09.414Z,22.38
2019-03-21T08:33:38.180Z,22.43
2019-03-21T08:36:06.658Z,22.49
2019-03-21T08:38:35.053Z,22.55
2019-03-21T08:41:03.526Z,22.61
2019-03-21T08:43:31.952Z,22.67
2019-03-21T08:46:00.363Z,22.71
2019-03-21T08:48:28.825Z,22.76
2019-03-21T08:51:07.565Z,22.82
2019-03-21T08:53:27.373Z,22.87
2019-03-21T08:55:55.771Z,22.91
2019-03-21T08:58:24.198Z,22.98
2019-03-21T09:00:52.585Z,23.04
2019-03-21T09:03:21.007Z,23.11
2019-03-21T09:05:49.395Z,23.16
2019-03-21T09:08:17.796Z,23.21
2019-03-21T09:10:46.195Z,23.26
2019-03-21T09:13:14.603Z,23.33
2019-03-21T09:15:43.005Z,23.38
2019-03-21T09:18:11.410Z,23.42
2019-03-21T09:20:39.805Z,23.47
2019-03-21T09:23:08.211Z,23.53
2019-03-21T09:25:36.636Z,23.59
2019-03-21T09:28:05.155Z,23.64
2019-03-21T09:30:33.555Z,23.71
2019-03-21T09:33:01.982Z,23.76
2019-03-21T09:35:30.438Z,23.82
2019-03-21T09:37:58.846Z,23.89
2019-03-21T09:40:27.242Z,23.93
2019-03-21T09:42:55.657Z,24.01
2019-03-21T09:45:24.049Z,24.08
2019-03-21T09:47:52.456Z,24.14
2019-03-21T09:50:29.581Z,24.25
2019-03-21T09:52:57.952Z,24.35
2019-03-21T09:55:26.404Z,24.44
2019-03-21T09:57:54.799Z,24.52
2019-03-21T10:00:31.157Z,24.64
2019-03-21T10:02:59.534Z,24.77
2019-03-21T10:05:28.843Z,24.92
2019-03-21T10:07:59.476Z,25.05
2019-03-21T10:10:29.334Z,25.17
2019-03-21T10:12:57.710Z,25.30
2019-03-21T10:15:26.085Z,25.45
2019-03-21T10:17:54.643Z,25.60
2019-03-21T10:20:23.016Z,25.74
2019-03-21T10:22:51.652Z,25.92
2019-03-21T10:25:20.160Z,26.13
2019-03-21T10:27:48.603Z,26.31
2019-03-21T10:30:34.336Z,26.54
2019-03-21T10:33:03.144Z,26.80
2019-03-21T10:35:32.698Z,27.10
2019-03-21T10:38:01.193Z,27.38
2019-03-21T10:40:29.577Z,27.67
2019-03-21T10:42:57.950Z,27.93
2019-03-21T10:45:26.351Z,28.17
2019-03-21T10:47:54.725Z,28.42
2019-03-21T10:50:42.676Z,28.82
2019-03-21T10:53:11.142Z,29.24
2019-03-21T10:55:40.230Z,29.74
2019-03-21T10:58:08.914Z,30.17
2019-03-21T11:00:37.475Z,30.65
2019-03-21T11:03:06.186Z,31.18
2019-03-21T11:05:34.732Z,31.78
2019-03-21T11:08:03.272Z,32.33
2019-03-21T11:10:31.656Z,32.85
2019-03-21T11:13:00.027Z,33.34
2019-03-21T11:15:28.651Z,33.77
2019-03-21T11:17:57.024Z,34.16
2019-03-21T11:20:33.433Z,34.50
2019-03-21T11:23:01.866Z,34.76
2019-03-21T11:25:30.595Z,34.95
2019-03-21T11:27:58.958Z,35.07
2019-03-21T11:30:35.419Z,35.19
2019-03-21T11:33:03.788Z,35.30
2019-03-21T11:35:32.165Z,35.36
2019-03-21T11:38:00.606Z,35.30
2019-03-21T11:40:28.995Z,35.22
2019-03-21T11:42:57.904Z,35.09
2019-03-21T11:45:26.456Z,35.01
2019-03-21T11:47:54.885Z,34.89
2019-03-21T11:50:23.263Z,34.76
2019-03-21T11:52:51.638Z,34.56
2019-03-21T11:55:20.129Z,34.27
2019-03-21T11:57:48.481Z,33.99
2019-03-21T12:00:17.087Z,33.76
2019-03-21T12:02:45.533Z,33.44
2019-03-21T12:05:13.973Z,33.13
2019-03-21T12:07:42.350Z,32.75
2019-03-21T12:10:12.014Z,32.40
2019-03-21T12:12:40.801Z,32.00
2019-03-21T12:15:11.210Z,31.63
2019-03-21T12:17:39.590Z,31.23
2019-03-21T12:20:10.100Z,30.77
2019-03-21T12:22:38.489Z,30.37
2019-03-21T12:25:07.909Z,30.00
2019-03-21T12:27:36.287Z,29.62
2019-03-21T12:30:07.580Z,29.25
2019-03-21T12:32:35.954Z,28.88
2019-03-21T12:35:06.665Z,28.51
2019-03-21T12:37:35.046Z,28.15
2019-03-21T12:40:05.399Z,27.89
2019-03-21T12:42:33.746Z,27.59
2019-03-21T12:45:02.120Z,27.31
2019-03-21T12:47:31.428Z,27.06
2019-03-21T12:50:00.315Z,26.78
2019-03-21T12:52:28.713Z,26.53
2019-03-21T12:54:57.088Z,26.33
2019-03-21T12:57:25.471Z,26.20
2019-03-21T12:59:53.838Z,26.07
2019-03-21T13:02:31.945Z,25.98
2019-03-21T13:04:52.324Z,25.91
2019-03-21T13:07:21.069Z,25.84
2019-03-21T13:09:49.655Z,25.78
2019-03-21T13:12:18.029Z,25.73
2019-03-21T13:14:46.404Z,25.68
2019-03-21T13:17:14.772Z,25.64
2019-03-21T13:19:43.513Z,25.62
2019-03-21T13:22:11.899Z,25.58
2019-03-21T13:24:40.316Z,25.53
2019-03-21T13:27:08.763Z,25.45
2019-03-21T13:29:37.141Z,25.36
2019-03-21T13:32:05.512Z,25.30
2019-03-21T13:34:33.954Z,25.23
2019-03-21T13:37:02.344Z,25.17
2019-03-21T13:39:30.720Z,25.13
2019-03-21T13:41:59.095Z,25.08
2019-03-21T13:44:27.470Z,25.04
2019-03-21T13:46:55.837Z,25.01
2019-03-21T13:49:24.219Z,24.98
2019-03-21T13:51:52.657Z,24.94
2019-03-21T13:54:21.036Z,24.92
2019-03-21T13:56:49.400Z,24.91
2019-03-21T13:59:17.779Z,24.88
2019-03-21T14:01:46.213Z,24.86
2019-03-21T14:04:14.599Z,24.84
2019-03-21T14:06:43.102Z,24.82
2019-03-21T14:09:11.823Z,24.81
2019-03-21T14:11:40.193Z,24.77
2019-03-21T14:14:08.576Z,24.76
2019-03-21T14:16:36.947Z,24.74
2019-03-21T14:19:05.323Z,24.73
2019-03-21T14:21:33.742Z,24.72
2019-03-21T14:24:02.263Z,24.70
2019-03-21T14:26:30.729Z,24.69
2019-03-21T14:28:59.247Z,24.69
2019-03-21T14:31:27.618Z,24.66
2019-03-21T14:33:55.994Z,24.65
2019-03-21T14:36:24.768Z,24.63
2019-03-21T14:38:53.148Z,24.61
2019-03-21T14:41:21.593Z,24.60
2019-03-21T14:43:49.966Z,24.59
2019-03-21T14:46:18.338Z,24.58
2019-03-21T14:48:46.927Z,24.55
2019-03-21T14:51:15.366Z,24.53
2019-03-21T14:53:43.743Z,24.53
2019-03-21T14:56:12.238Z,24.51
2019-03-21T14:58:40.675Z,24.50
2019-03-21T15:01:09.050Z,24.49
2019-03-21T15:03:37.653Z,24.48
2019-03-21T15:06:06.085Z,24.46
2019-03-21T15:08:34.449Z,24.45
2019-03-21T15:11:02.827Z,24.44
2019-03-21T15:13:31.389Z,24.42
2019-03-21T15:15:59.842Z,24.41
2019-03-21T15:18:28.362Z,24.40
2019-03-21T15:20:56.758Z,24.39
2019-03-21T15:23:26.038Z,24.39
2019-03-21T15:25:54.682Z,24.37
2019-03-21T15:28:23.221Z,24.37
2019-03-21T15:30:51.601Z,24.35
2019-03-21T15:33:19.973Z,24.35
2019-03-21T15:35:48.604Z,24.33
2019-03-21T15:38:17.056Z,24.31
2019-03-21T15:40:45.499Z,24.31
2019-03-21T15:43:13.867Z,24.30
2019-03-21T15:45:42.676Z,24.29
2019-03-21T15:48:11.073Z,24.28
2019-03-21T15:50:39.449Z,24.26
2019-03-21T15:53:08.047Z,24.26
2019-03-21T15:55:36.542Z,24.24
2019-03-21T15:58:05.090Z,24.23
2019-03-21T16:00:38.581Z,24.23
2019-03-21T16:03:08.301Z,24.22
2019-03-21T16:05:37.254Z,24.21
2019-03-21T16:08:08.743Z,24.20
2019-03-21T16:10:36.566Z,24.20
2019-03-21T16:13:05.280Z,24.20
2019-03-21T16:15:33.730Z,24.19
2019-03-21T16:18:02.106Z,24.18
2019-03-21T16:20:30.563Z,24.17
2019-03-21T16:22:58.937Z,24.17
2019-03-21T16:25:27.336Z,24.17
2019-03-21T16:27:55.784Z,24.15
2019-03-21T16:30:24.980Z,24.97
2019-03-21T16:32:53.361Z,24.97
2019-03-21T16:35:21.730Z,26.62
2019-03-21T16:37:50.121Z,26.77
2019-03-21T16:40:18.562Z,26.50
2019-03-21T16:42:47.019Z,26.23
2019-03-21T16:45:16.032Z,25.84
2019-03-21T16:47:44.479Z,25.33
2019-03-21T16:50:14.613Z,24.97
2019-03-21T16:52:43.162Z,24.75
2019-03-21T16:55:12.884Z,24.60
2019-03-21T16:57:41.277Z,24.50
2019-03-21T17:00:18.163Z,24.42
2019-03-21T17:02:47.382Z,24.37
2019-03-21T17:05:15.835Z,24.29
2019-03-21T17:07:44.221Z,24.24
2019-03-21T17:10:15.780Z,24.19
2019-03-21T17:12:44.273Z,24.18
2019-03-21T17:15:14.876Z,24.16
2019-03-21T17:17:43.741Z,24.13
2019-03-21T17:20:12.586Z,24.10
2019-03-21T17:22:41.070Z,24.07
2019-03-21T17:25:09.839Z,24.04
2019-03-21T17:27:38.490Z,24.03
2019-03-21T17:30:12.082Z,24.01
2019-03-21T17:32:40.482Z,23.98
2019-03-21T17:35:09.122Z,23.97
2019-03-21T17:37:37.508Z,23.88
2019-03-21T17:40:08.995Z,23.88
2019-03-21T17:42:37.367Z,23.92
2019-03-21T17:45:11.577Z,23.91
2019-03-21T17:47:40.310Z,23.90
2019-03-21T17:50:10.039Z,23.88
2019-03-21T17:52:38.414Z,23.86
2019-03-21T17:55:07.850Z,23.83
2019-03-21T17:57:36.226Z,23.82
2019-03-21T18:00:08.769Z,23.81
2019-03-21T18:02:37.278Z,23.80
2019-03-21T18:05:07.517Z,23.79
2019-03-21T18:07:35.885Z,23.78
2019-03-21T18:10:07.167Z,23.76
2019-03-21T18:12:35.756Z,23.73
2019-03-21T18:15:06.881Z,23.72
2019-03-21T18:17:35.227Z,23.70
2019-03-21T18:20:05.002Z,23.69
2019-03-21T18:22:33.386Z,23.68
2019-03-21T18:25:01.793Z,23.67
2019-03-21T18:27:30.165Z,23.66
2019-03-21T18:29:58.560Z,23.66
2019-03-21T18:32:26.951Z,23.64
2019-03-21T18:34:55.337Z,23.61
2019-03-21T18:37:23.752Z,23.60
2019-03-21T18:39:52.147Z,23.61
2019-03-21T18:42:20.554Z,23.59
2019-03-21T18:44:50.507Z,23.57
2019-03-21T18:47:18.988Z,23.57
2019-03-21T18:49:47.478Z,23.55
2019-03-21T18:52:15.863Z,23.53
2019-03-21T18:54:44.321Z,23.54
2019-03-21T18:57:12.701Z,23.52
2019-03-21T18:59:41.081Z,23.49
2019-03-21T19:02:09.472Z,23.48
2019-03-21T19:04:37.841Z,23.45
2019-03-21T19:07:06.352Z,23.45
2019-03-21T19:09:34.764Z,23.44
2019-03-21T19:12:03.197Z,23.43
2019-03-21T19:14:31.568Z,23.42
2019-03-21T19:16:59.981Z,23.41
2019-03-21T19:19:28.343Z,23.39
2019-03-21T19:21:56.752Z,23.39
2019-03-21T19:24:25.127Z,23.37
2019-03-21T19:26:53.518Z,23.37
2019-03-21T19:29:21.895Z,23.36
2019-03-21T19:31:50.285Z,23.34
2019-03-21T19:34:18.672Z,23.33
2019-03-21T19:36:47.050Z,23.33
2019-03-21T19:41:42.778Z,23.29
2019-03-21T19:44:11.165Z,23.29
2019-03-21T19:46:39.763Z,23.27
2019-03-21T19:49:08.144Z,23.25
2019-03-21T19:51:36.527Z,23.26
2019-03-21T19:54:04.979Z,23.25
2019-03-21T19:56:33.367Z,23.24
2019-03-21T19:59:01.747Z,23.22
2019-03-21T20:01:30.206Z,23.23
2019-03-21T20:03:58.600Z,23.22
2019-03-21T20:06:26.962Z,23.20
2019-03-21T20:08:56.883Z,23.20
2019-03-21T20:11:25.410Z,23.20
2019-03-21T20:13:53.776Z,23.18
2019-03-21T20:16:22.155Z,23.18
2019-03-21T20:18:50.536Z,23.16
2019-03-21T20:21:18.904Z,23.16
2019-03-21T20:23:47.287Z,23.14
2019-03-21T20:26:15.663Z,23.15
2019-03-21T20:28:45.101Z,23.12
2019-03-21T20:31:13.476Z,23.12
2019-03-21T20:33:41.878Z,23.14
2019-03-21T20:36:10.263Z,23.14
2019-03-21T20:38:38.648Z,23.13
2019-03-21T20:41:07.038Z,23.13
2019-03-21T20:43:35.400Z,23.11
2019-03-21T20:46:03.780Z,23.10
2019-03-21T20:48:31.011Z,23.09
2019-03-21T20:50:59.445Z,23.08
2019-03-21T20:53:27.833Z,23.07
2019-03-21T20:55:56.204Z,23.06
2019-03-21T20:58:24.587Z,23.05
2019-03-21T21:00:52.964Z,23.04
2019-03-21T21:03:21.347Z,23.03
2019-03-21T21:05:49.728Z,23.02
2019-03-21T21:08:18.114Z,23.02
2019-03-21T21:10:46.498Z,23.01
2019-03-21T21:13:15.488Z,22.98
2019-03-21T21:15:43.884Z,22.98
2019-03-21T21:18:12.279Z,22.98
2019-03-21T21:20:40.674Z,22.97
2019-03-21T21:23:11.047Z,22.95
2019-03-21T21:25:39.155Z,22.94
2019-03-21T21:28:07.552Z,22.94
2019-03-21T21:30:35.931Z,22.92
2019-03-21T21:33:04.343Z,22.90
2019-03-21T21:35:32.776Z,22.89
2019-03-21T21:38:01.153Z,22.88
2019-03-21T21:40:32.670Z,22.88
2019-03-21T21:43:01.162Z,22.86
2019-03-21T21:45:29.556Z,22.85
2019-03-21T21:47:57.937Z,22.85
2019-03-21T21:50:26.326Z,22.82
2019-03-21T21:52:54.709Z,22.80
2019-03-21T21:55:23.098Z,22.80
2019-03-21T21:57:51.488Z,22.80
2019-03-21T22:00:23.049Z,22.78
2019-03-21T22:02:51.553Z,22.78
2019-03-21T22:05:19.946Z,22.76
2019-03-21T22:07:48.322Z,22.74
2019-03-21T22:10:17.304Z,22.74
2019-03-21T22:12:46.090Z,22.73
2019-03-21T22:15:15.561Z,22.70
2019-03-21T22:17:43.960Z,22.70
2019-03-21T22:20:14.712Z,22.68
2019-03-21T22:22:43.198Z,22.68
2019-03-21T22:25:11.960Z,22.66
2019-03-21T22:27:40.363Z,22.63
2019-03-21T22:30:19.343Z,22.63
2019-03-21T22:32:47.816Z,22.61
2019-03-21T22:35:16.292Z,22.61
2019-03-21T22:37:44.683Z,22.58
2019-03-21T22:40:15.110Z,22.58
2019-03-21T22:42:43.432Z,22.54
2019-03-21T22:45:16.588Z,22.54
2019-03-21T22:47:44.954Z,22.55
2019-03-21T22:50:19.081Z,22.52
2019-03-21T22:52:47.455Z,22.52
2019-03-21T22:55:16.454Z,22.50
2019-03-21T22:57:44.892Z,22.49
2019-03-21T23:00:16.313Z,22.48
2019-03-21T23:02:44.693Z,22.48
2019-03-21T23:05:13.618Z,22.47
2019-03-21T23:07:41.997Z,22.45
2019-03-21T23:10:11.312Z,22.43
2019-03-21T23:12:39.762Z,22.44
2019-03-21T23:15:12.631Z,22.43
2019-03-21T23:17:41.017Z,22.41
2019-03-21T23:20:16.487Z,22.41
2019-03-21T23:22:44.938Z,22.41
2019-03-21T23:25:16.469Z,22.39
2019-03-21T23:27:44.625Z,22.38
2019-03-21T23:30:15.229Z,22.37
2019-03-21T23:32:43.611Z,22.37
2019-03-21T23:35:12.116Z,22.34
2019-03-21T23:37:40.498Z,22.35
2019-03-21T23:40:11.399Z,22.35
2019-03-21T23:42:39.784Z,22.34
2019-03-21T23:45:09.698Z,22.32
2019-03-21T23:47:38.075Z,22.30
2019-03-21T23:50:09.181Z,22.30
2019-03-21T23:52:37.633Z,22.29
2019-03-21T23:55:07.635Z,22.27
2019-03-21T23:57:36.017Z,22.26
